Terminal Aerodrome Forecast
Issued by NWS

Home | Current Version | Previous Version | Graphics & Text | Print | Product List | Glossary On
Versions: 1 2 3 4 5 6 7 8 9 10 11 12 13 14 15 16 17 18 19 20 21 22
000
FTUS43 KGRB 220520
TAFAUW
TAF
KAUW 220520Z 2206/2306 17012G23KT 5SM -TSRA OVC025CB WS010/18035KT
     FM220700 19008KT 6SM -SHRA OVC015 WS010/19035KT
     FM220900 23005KT P6SM -SHRA OVC010
     FM221500 28007KT P6SM OVC020
     FM221900 29007KT P6SM SCT030 BKN090
     FM222300 23004KT P6SM SCT100=

USA.gov is the U.S. government's official web portal to all federal, state and local government web resources and services.